createdAt,value
2023-01-25T00:02:13.741Z,98545.88
2023-01-25T00:04:41.807Z,98539.78
2023-01-25T00:07:09.932Z,98532.84
2023-01-25T00:09:38.025Z,98532.88
2023-01-25T00:12:08.148Z,98540.59
2023-01-25T00:14:36.283Z,98538.38
2023-01-25T00:17:04.798Z,98547.94
2023-01-25T00:19:32.910Z,98540.59
2023-01-25T00:22:01.071Z,98542.03
2023-01-25T00:24:29.171Z,98544.25
2023-01-25T00:26:57.250Z,98540.81
2023-01-25T00:29:26.885Z,98546.28
2023-01-25T00:32:00.406Z,98547.91
2023-01-25T00:34:46.617Z,98537.72
2023-01-25T00:37:25.418Z,98539.16
2023-01-25T00:39:53.615Z,98534.84
2023-01-25T00:42:22.219Z,98534.84
2023-01-25T00:44:51.687Z,98536.91
2023-01-25T00:47:21.296Z,98541.59
2023-01-25T00:49:50.327Z,98542.22
2023-01-25T00:52:18.524Z,98535.28
2023-01-25T00:54:46.663Z,98532.41
2023-01-25T00:57:14.997Z,98535.47
2023-01-25T00:59:44.852Z,98533.44
2023-01-25T01:02:16.430Z,98531.59
2023-01-25T01:04:44.729Z,98534.66
2023-01-25T01:07:14.270Z,98534.03
2023-01-25T01:09:42.754Z,98532.81
2023-01-25T01:12:10.989Z,98533.63
2023-01-25T01:14:39.192Z,98521.81
2023-01-25T01:17:07.369Z,98526.50
2023-01-25T01:19:36.924Z,98526.88
2023-01-25T01:22:05.394Z,98520.19
2023-01-25T01:24:33.793Z,98527.91
2023-01-25T01:27:01.980Z,98515.69
2023-01-25T01:29:30.263Z,98517.75
2023-01-25T01:31:58.579Z,98522.38
2023-01-25T01:34:28.491Z,98520.94
2023-01-25T01:36:58.500Z,98525.03
2023-01-25T01:39:27.657Z,98526.63
2023-01-25T01:41:56.151Z,98519.53
2023-01-25T01:44:45.446Z,98518.94
2023-01-25T01:47:19.318Z,98514.81
2023-01-25T01:49:53.202Z,98521.34
2023-01-25T01:52:25.021Z,98532.13
2023-01-25T01:54:56.357Z,98521.34
2023-01-25T01:57:27.428Z,98523.72
2023-01-25T02:00:00.742Z,98521.75
2023-01-25T02:02:29.327Z,98522.13
2023-01-25T02:05:00.189Z,98522.94
2023-01-25T02:07:34.990Z,98522.13
2023-01-25T02:10:04.477Z,98522.75
2023-01-25T02:12:33.366Z,98522.94
2023-01-25T02:15:01.805Z,98527.84
2023-01-25T02:17:32.902Z,98531.94
2023-01-25T02:20:05.543Z,98525.25
2023-01-25T02:22:40.866Z,98527.25
2023-01-25T02:25:11.542Z,98523.78
2023-01-25T02:27:41.890Z,98525.78
2023-01-25T02:30:11.478Z,98525.78
2023-01-25T02:32:39.580Z,98523.97
2023-01-25T02:35:09.522Z,98518.81
2023-01-25T02:37:37.796Z,98525.34
2023-01-25T02:40:06.957Z,98519.47
2023-01-25T02:42:36.600Z,98516.63
2023-01-25T02:45:08.883Z,98513.59
2023-01-25T02:47:37.305Z,98516.03
2023-01-25T02:50:06.314Z,98510.75
2023-01-25T02:52:34.623Z,98514.00
2023-01-25T02:55:02.901Z,98514.22
2023-01-25T02:57:31.349Z,98513.16
2023-01-25T03:00:01.422Z,98508.47
2023-01-25T03:02:32.263Z,98517.28
2023-01-25T03:05:00.838Z,98511.78
2023-01-25T03:07:29.753Z,98510.34
2023-01-25T03:09:58.157Z,98501.78
2023-01-25T03:12:26.804Z,98498.91
2023-01-25T03:14:55.784Z,98506.25
2023-01-25T03:17:25.549Z,98503.59
2023-01-25T03:19:54.051Z,98500.13
2023-01-25T03:22:22.836Z,98504.59
2023-01-25T03:24:51.561Z,98502.53
2023-01-25T03:27:19.718Z,98502.56
2023-01-25T03:29:50.739Z,98499.72
2023-01-25T03:32:25.065Z,98508.66
2023-01-25T03:34:53.758Z,98506.41
2023-01-25T03:37:22.092Z,98507.59
2023-01-25T03:39:50.958Z,98502.50
2023-01-25T03:42:21.142Z,98494.38
2023-01-25T03:44:53.426Z,98500.84
2023-01-25T03:47:22.166Z,98491.94
2023-01-25T03:49:51.798Z,98494.81
2023-01-25T03:52:20.717Z,98494.00
2023-01-25T03:54:49.257Z,98487.72
2023-01-25T03:57:17.556Z,98480.56
2023-01-25T04:00:13.706Z,98481.81
2023-01-25T04:03:16.075Z,98467.56
2023-01-25T04:05:45.632Z,98468.78
2023-01-25T04:08:13.889Z,98462.69
2023-01-25T04:10:42.283Z,98463.50
2023-01-25T04:13:10.639Z,98467.81
2023-01-25T04:15:38.757Z,98461.47
2023-01-25T04:18:15.614Z,98459.41
2023-01-25T04:20:45.079Z,98452.03
2023-01-25T04:23:14.145Z,98458.19
2023-01-25T04:25:43.754Z,98458.59
2023-01-25T04:28:16.620Z,98455.78
2023-01-25T04:30:45.554Z,98455.78
2023-01-25T04:33:14.121Z,98453.28
2023-01-25T04:35:42.474Z,98453.31
2023-01-25T04:38:12.992Z,98452.28
2023-01-25T04:40:44.066Z,98453.69
2023-01-25T04:43:14.202Z,98444.94
2023-01-25T04:45:43.489Z,98444.94
2023-01-25T04:48:18.980Z,98454.91
2023-01-25T04:50:55.981Z,98450.81
2023-01-25T04:53:27.535Z,98444.53
2023-01-25T04:55:58.365Z,98447.41
2023-01-25T04:58:27.368Z,98443.09
2023-01-25T05:00:56.078Z,98440.66
2023-01-25T05:03:26.791Z,98440.88
2023-01-25T05:05:56.482Z,98439.41
2023-01-25T05:08:28.081Z,98439.44
2023-01-25T05:11:01.056Z,98436.19
2023-01-25T05:13:40.550Z,98440.66
2023-01-25T05:16:20.487Z,98433.50
2023-01-25T05:18:49.508Z,98445.75
2023-01-25T05:21:56.207Z,98437.78
2023-01-25T05:24:25.866Z,98436.38
2023-01-25T05:27:03.777Z,98435.72
2023-01-25T05:29:52.459Z,98425.88
2023-01-25T05:32:24.444Z,98419.75
2023-01-25T05:34:53.329Z,98421.81
2023-01-25T05:37:22.743Z,98417.31
2023-01-25T05:40:01.274Z,98414.88
2023-01-25T05:42:31.045Z,98413.88
2023-01-25T05:45:01.046Z,98421.97
2023-01-25T05:47:30.373Z,98419.75
2023-01-25T05:49:58.626Z,98417.09
2023-01-25T05:52:41.243Z,98423.47
2023-01-25T05:55:13.346Z,98422.06
2023-01-25T05:57:43.155Z,98408.22
2023-01-25T06:00:12.542Z,98413.31
2023-01-25T06:02:43.686Z,98408.84
2023-01-25T06:05:17.970Z,98399.50
2023-01-25T06:07:47.034Z,98397.84
2023-01-25T06:10:18.108Z,98394.84
2023-01-25T06:12:50.049Z,98397.47
2023-01-25T06:15:18.662Z,98396.22
2023-01-25T06:17:46.899Z,98395.84
2023-01-25T06:20:53.808Z,98400.06
2023-01-25T06:23:30.713Z,98396.03
2023-01-25T06:26:02.679Z,98397.00
2023-01-25T06:28:32.341Z,98389.84
2023-01-25T06:31:06.084Z,98392.06
2023-01-25T06:33:35.143Z,98385.16
2023-01-25T06:36:07.067Z,98383.97
2023-01-25T06:38:35.514Z,98386.81
2023-01-25T06:41:06.587Z,98386.81
2023-01-25T06:43:36.031Z,98386.03
2023-01-25T06:46:06.661Z,98389.06
2023-01-25T06:48:35.326Z,98391.34
2023-01-25T06:51:05.936Z,98382.78
2023-01-25T06:53:35.836Z,98373.63
2023-01-25T06:56:07.906Z,98370.59
2023-01-25T06:58:37.250Z,98371.41
2023-01-25T07:01:07.430Z,98368.97
2023-01-25T07:03:35.936Z,98368.13
2023-01-25T07:06:06.573Z,98375.88
2023-01-25T07:08:35.644Z,98375.47
2023-01-25T07:11:07.408Z,98367.75
2023-01-25T07:13:35.904Z,98371.41
2023-01-25T07:16:08.474Z,98371.41
2023-01-25T07:18:37.685Z,98372.03
2023-01-25T07:21:07.456Z,98380.78
2023-01-25T07:23:38.056Z,98378.94
2023-01-25T07:26:08.216Z,98381.59
2023-01-25T07:28:36.596Z,98378.69
2023-01-25T07:31:08.232Z,98386.03
2023-01-25T07:33:37.071Z,98381.34
2023-01-25T07:36:14.695Z,98377.66
2023-01-25T07:38:43.015Z,98373.19
2023-01-25T07:41:13.129Z,98379.50
2023-01-25T07:43:41.887Z,98369.31
2023-01-25T07:46:13.715Z,98375.47
2023-01-25T07:48:46.526Z,98377.66
2023-01-25T07:51:22.881Z,98374.44
2023-01-25T07:53:52.423Z,98370.56
2023-01-25T07:56:23.235Z,98375.66
2023-01-25T07:58:53.481Z,98369.34
2023-01-25T08:01:23.414Z,98373.41
2023-01-25T08:03:52.420Z,98364.06
2023-01-25T08:06:27.610Z,98365.09
2023-01-25T08:08:56.409Z,98364.28
2023-01-25T08:11:28.231Z,98366.31
2023-01-25T08:13:57.186Z,98369.16
2023-01-25T08:16:26.959Z,98368.56
2023-01-25T08:18:56.622Z,98368.97
2023-01-25T08:21:30.153Z,98363.66
2023-01-25T08:24:00.810Z,98369.38
2023-01-25T08:26:30.735Z,98365.69
2023-01-25T08:28:58.855Z,98366.13
2023-01-25T08:31:28.931Z,98364.88
2023-01-25T08:33:58.220Z,98367.75
2023-01-25T08:36:28.194Z,98364.28
2023-01-25T08:38:58.256Z,98357.97
2023-01-25T08:41:28.154Z,98350.22
2023-01-25T08:43:58.122Z,98350.63
2023-01-25T08:46:30.295Z,98348.78
2023-01-25T08:49:01.505Z,98341.66
2023-01-25T08:51:31.525Z,98341.28
2023-01-25T08:54:03.937Z,98343.69
2023-01-25T08:56:32.266Z,98339.66
2023-01-25T08:59:02.792Z,98338.84
2023-01-25T09:01:31.380Z,98332.09
2023-01-25T09:03:59.860Z,98340.47
2023-01-25T09:06:28.904Z,98338.84
2023-01-25T09:08:57.227Z,98335.16
2023-01-25T09:11:25.545Z,98342.09
2023-01-25T09:13:53.916Z,98335.97
2023-01-25T09:16:29.021Z,98338.41
2023-01-25T09:18:58.608Z,98339.66
2023-01-25T09:21:27.392Z,98330.28
2023-01-25T09:24:11.270Z,98331.09
2023-01-25T09:26:45.953Z,98333.94
2023-01-25T09:29:18.177Z,98326.22
2023-01-25T09:31:48.077Z,98337.59
2023-01-25T09:34:37.726Z,98338.81
2023-01-25T09:37:05.934Z,98338.00
2023-01-25T09:39:34.044Z,98339.22
2023-01-25T09:42:21.531Z,98337.38
2023-01-25T09:45:16.798Z,98337.00
2023-01-25T09:47:52.369Z,98338.00
2023-01-25T09:50:30.116Z,98330.28
2023-01-25T09:53:20.580Z,98329.25
2023-01-25T09:55:54.084Z,98330.25
2023-01-25T09:58:26.210Z,98327.03
2023-01-25T10:01:09.671Z,98327.00
2023-01-25T10:03:49.553Z,98316.84
2023-01-25T10:06:18.400Z,98310.31
2023-01-25T10:08:52.985Z,98310.72
2023-01-25T10:11:24.939Z,98300.53
2023-01-25T10:13:53.893Z,98310.91
2023-01-25T10:16:27.003Z,98305.84
2023-01-25T10:19:06.783Z,98304.41
2023-01-25T10:21:36.947Z,98304.41
2023-01-25T10:24:28.269Z,98303.78
2023-01-25T10:26:58.257Z,98291.59
2023-01-25T10:29:29.203Z,98295.47
2023-01-25T10:32:01.938Z,98291.19
2023-01-25T10:34:39.093Z,98285.50
2023-01-25T10:37:17.074Z,98289.94
2023-01-25T10:39:55.773Z,98279.16
2023-01-25T10:42:26.274Z,98271.63
2023-01-25T10:44:54.486Z,98272.84
2023-01-25T10:47:25.551Z,98258.59
2023-01-25T10:49:56.199Z,98258.16
2023-01-25T10:52:26.154Z,98252.47
2023-01-25T10:55:12.954Z,98252.88
2023-01-25T10:57:44.382Z,98248.81
2023-01-25T11:00:29.971Z,98246.34
2023-01-25T11:02:58.949Z,98250.41
2023-01-25T11:05:31.384Z,98238.19
2023-01-25T11:08:01.397Z,98232.72
2023-01-25T11:10:32.645Z,98227.00
2023-01-25T11:13:20.967Z,98223.91
2023-01-25T11:15:51.293Z,98221.06
2023-01-25T11:18:22.284Z,98218.63
2023-01-25T11:21:06.122Z,98210.28
2023-01-25T11:23:34.830Z,98200.91
2023-01-25T11:26:14.878Z,98204.00
2023-01-25T11:28:44.523Z,98206.44
2023-01-25T11:31:14.485Z,98205.84
2023-01-25T11:33:45.641Z,98197.88
2023-01-25T11:36:24.178Z,98190.16
2023-01-25T11:39:14.005Z,98187.72
2023-01-25T11:41:53.645Z,98177.13
2023-01-25T11:45:09.607Z,98175.91
2023-01-25T11:47:51.607Z,98173.88
2023-01-25T11:50:25.902Z,98164.47
2023-01-25T11:53:14.385Z,98160.00
2023-01-25T11:55:47.353Z,98157.78
2023-01-25T11:58:28.460Z,98149.22
2023-01-25T12:01:07.695Z,98148.56
2023-01-25T12:04:17.946Z,98137.09
2023-01-25T12:06:58.593Z,98139.16
2023-01-25T12:09:38.420Z,98125.72
2023-01-25T12:12:13.423Z,98123.72
2023-01-25T12:14:56.275Z,98125.09
2023-01-25T12:17:38.990Z,98115.56
2023-01-25T12:20:22.298Z,98111.41
2023-01-25T12:23:14.077Z,98110.41
2023-01-25T12:25:51.799Z,98107.16
2023-01-25T12:28:22.787Z,98102.03
2023-01-25T12:30:54.905Z,98106.94
2023-01-25T12:33:27.337Z,98095.91
2023-01-25T12:36:00.557Z,98092.84
2023-01-25T12:38:32.053Z,98089.41
2023-01-25T12:41:05.205Z,98085.13
2023-01-25T12:43:38.724Z,98087.00
2023-01-25T12:46:13.385Z,98079.66
2023-01-25T12:48:46.224Z,98072.75
2023-01-25T12:51:15.438Z,98076.06
2023-01-25T12:53:47.120Z,98065.09
2023-01-25T12:56:29.760Z,98066.31
2023-01-25T12:59:02.768Z,98065.50
2023-01-25T13:01:35.469Z,98067.53
2023-01-25T13:04:16.014Z,98060.88
2023-01-25T13:06:48.490Z,98056.03
2023-01-25T13:09:21.328Z,98041.88
2023-01-25T13:11:51.503Z,98042.28
2023-01-25T13:14:40.685Z,98041.03
2023-01-25T13:17:14.007Z,98038.63
2023-01-25T13:19:43.400Z,98040.03
2023-01-25T13:22:12.877Z,98036.16
2023-01-25T13:25:10.891Z,98033.72
2023-01-25T13:27:41.066Z,98023.50
2023-01-25T13:30:33.425Z,98025.75
2023-01-25T13:33:05.826Z,98017.19
2023-01-25T13:35:39.113Z,98021.63
2023-01-25T13:38:26.999Z,98019.84
2023-01-25T13:41:10.827Z,98011.16
2023-01-25T13:43:41.749Z,98015.06
2023-01-25T13:46:13.079Z,98015.09
2023-01-25T13:48:56.991Z,98012.72
2023-01-25T13:51:27.479Z,98005.84
2023-01-25T13:54:00.406Z,98005.03
2023-01-25T13:56:32.055Z,98000.94
2023-01-25T13:59:01.812Z,98002.56
2023-01-25T14:01:32.169Z,97996.44
2023-01-25T14:04:03.324Z,98003.72
2023-01-25T14:06:34.080Z,97998.84
2023-01-25T14:09:07.664Z,97997.78
2023-01-25T14:11:42.560Z,98002.81
2023-01-25T14:14:26.811Z,97992.25
2023-01-25T14:19:37.945Z,97989.66
2023-01-25T14:22:25.878Z,97986.75
2023-01-25T14:25:13.260Z,97981.47
2023-01-25T14:27:46.783Z,97979.59
2023-01-25T14:30:21.588Z,97984.19
2023-01-25T14:32:51.057Z,97976.84
2023-01-25T14:35:54.553Z,97986.16
2023-01-25T14:38:29.743Z,97986.97
2023-01-25T14:41:00.657Z,97979.44
2023-01-25T14:43:29.583Z,97980.19
2023-01-25T14:45:59.472Z,97979.66
2023-01-25T14:48:37.963Z,97977.25
2023-01-25T14:51:11.648Z,97978.44
2023-01-25T14:53:41.623Z,97973.53
2023-01-25T14:56:20.179Z,97969.88
2023-01-25T14:58:59.032Z,97965.41
2023-01-25T15:01:33.790Z,97966.59
2023-01-25T15:04:02.609Z,97959.44
2023-01-25T15:06:30.923Z,97970.19
2023-01-25T15:08:59.495Z,97963.72
2023-01-25T15:11:59.551Z,97960.25
2023-01-25T15:14:28.337Z,97957.41
2023-01-25T15:16:57.951Z,97952.31
2023-01-25T15:19:28.640Z,97946.38
2023-01-25T15:21:58.787Z,97945.78
2023-01-25T15:24:28.062Z,97942.78
2023-01-25T15:26:57.114Z,97947.25
2023-01-25T15:29:27.277Z,97947.06
2023-01-25T15:31:57.711Z,97939.00
2023-01-25T15:34:29.371Z,97941.44
2023-01-25T15:36:57.745Z,97936.91
2023-01-25T15:39:26.077Z,97927.31
2023-01-25T15:41:54.551Z,97931.56
2023-01-25T15:44:22.603Z,97927.69
2023-01-25T15:46:52.428Z,97938.09
2023-01-25T15:49:25.302Z,97936.91
2023-01-25T15:51:53.631Z,97929.56
2023-01-25T15:54:21.970Z,97921.44
2023-01-25T15:56:53.287Z,97926.31
2023-01-25T15:59:21.650Z,97919.59
2023-01-25T16:01:49.908Z,97929.38
2023-01-25T16:04:18.348Z,97917.00
2023-01-25T16:06:50.802Z,97919.13
2023-01-25T16:09:21.516Z,97927.25
2023-01-25T16:11:53.168Z,97920.72
2023-01-25T16:14:23.700Z,97915.44
2023-01-25T16:16:53.380Z,97915.22
2023-01-25T16:19:23.147Z,97914.81
2023-01-25T16:21:53.262Z,97911.75
2023-01-25T16:24:21.500Z,97906.44
2023-01-25T16:26:52.827Z,97897.88
2023-01-25T16:29:22.939Z,97905.78
2023-01-25T16:31:51.802Z,97901.44
2023-01-25T16:34:21.242Z,97899.09
2023-01-25T16:36:51.234Z,97887.88
2023-01-25T16:39:23.021Z,97883.63
2023-01-25T16:41:52.011Z,97893.41
2023-01-25T16:44:20.533Z,97890.97
2023-01-25T16:46:50.266Z,97880.81
2023-01-25T16:49:20.328Z,97881.97
2023-01-25T16:51:49.149Z,97868.72
2023-01-25T16:54:19.830Z,97863.38
2023-01-25T16:56:49.990Z,97861.78
2023-01-25T16:59:19.222Z,97861.56
2023-01-25T17:01:47.679Z,97861.78
2023-01-25T17:04:16.701Z,97858.44
2023-01-25T17:06:47.719Z,97858.50
2023-01-25T17:09:24.988Z,97855.81
2023-01-25T17:11:55.727Z,97859.63
2023-01-25T17:14:24.621Z,97851.28
2023-01-25T17:16:53.743Z,97853.06
2023-01-25T17:19:22.500Z,97853.06
2023-01-25T17:21:51.538Z,97849.25
2023-01-25T17:24:26.047Z,97836.84
2023-01-25T17:26:59.561Z,97839.75
2023-01-25T17:29:29.971Z,97838.72
2023-01-25T17:31:58.681Z,97837.28
2023-01-25T17:34:27.681Z,97843.75
2023-01-25T17:36:58.130Z,97838.63
2023-01-25T17:39:26.615Z,97834.19
2023-01-25T17:41:54.998Z,97833.94
2023-01-25T17:44:25.383Z,97829.06
2023-01-25T17:46:54.079Z,97817.28
2023-01-25T17:49:24.572Z,97813.19
2023-01-25T17:51:53.284Z,97807.28
2023-01-25T17:54:21.710Z,97808.09
2023-01-25T17:56:50.368Z,97807.44
2023-01-25T17:59:19.149Z,97806.22
2023-01-25T18:01:49.852Z,97811.50
2023-01-25T18:04:19.345Z,97807.69
2023-01-25T18:06:48.142Z,97808.38
2023-01-25T18:09:17.106Z,97804.31
2023-01-25T18:11:45.870Z,97805.09
2023-01-25T18:14:17.017Z,97813.41
2023-01-25T18:16:45.798Z,97812.00
2023-01-25T18:19:15.913Z,97807.16
2023-01-25T18:21:44.820Z,97806.56
2023-01-25T18:24:28.444Z,97795.72
2023-01-25T18:27:01.531Z,97796.72
2023-01-25T18:29:41.371Z,97786.72
2023-01-25T18:32:09.849Z,97788.34
2023-01-25T18:34:39.639Z,97778.38
2023-01-25T18:37:17.889Z,97772.47
2023-01-25T18:39:46.522Z,97772.16
2023-01-25T18:42:15.256Z,97769.25
2023-01-25T18:44:48.193Z,97768.03
2023-01-25T18:47:19.023Z,97772.31
2023-01-25T18:49:50.506Z,97770.66
2023-01-25T18:52:20.329Z,97765.88
2023-01-25T18:54:48.755Z,97765.72
2023-01-25T18:57:17.574Z,97768.13
2023-01-25T18:59:45.984Z,97761.66
2023-01-25T19:02:15.558Z,97755.69
2023-01-25T19:04:44.233Z,97751.59
2023-01-25T19:07:14.154Z,97745.75
2023-01-25T19:09:43.682Z,97746.66
2023-01-25T19:12:12.605Z,97740.50
2023-01-25T19:14:41.304Z,97740.44
2023-01-25T19:17:10.018Z,97747.22
2023-01-25T19:19:38.686Z,97740.88
2023-01-25T19:22:07.390Z,97738.13
2023-01-25T19:24:37.151Z,97743.53
2023-01-25T19:27:05.494Z,97730.75
2023-01-25T19:29:33.637Z,97733.97
2023-01-25T19:32:01.811Z,97730.38
2023-01-25T19:34:30.102Z,97723.91
2023-01-25T19:36:58.349Z,97713.28
2023-01-25T19:39:27.092Z,97713.34
2023-01-25T19:41:56.859Z,97710.38
2023-01-25T19:44:25.300Z,97716.34
2023-01-25T19:46:54.151Z,97708.13
2023-01-25T19:49:23.157Z,97711.22
2023-01-25T19:51:53.731Z,97707.78
2023-01-25T19:54:23.092Z,97695.25
2023-01-25T19:56:52.259Z,97700.91
2023-01-25T19:59:24.839Z,97690.91
2023-01-25T20:01:53.448Z,97690.63
2023-01-25T20:04:23.974Z,97696.19
2023-01-25T20:06:54.077Z,97687.44
2023-01-25T20:09:27.883Z,97690.03
2023-01-25T20:11:57.646Z,97688.69
2023-01-25T20:14:27.321Z,97690.69
2023-01-25T20:16:55.568Z,97689.22
2023-01-25T20:19:24.041Z,97677.72
2023-01-25T20:21:52.832Z,97677.94
2023-01-25T20:24:21.773Z,97669.94
2023-01-25T20:26:51.254Z,97670.97
2023-01-25T20:29:20.080Z,97674.63
2023-01-25T20:31:49.656Z,97668.94
2023-01-25T20:34:19.726Z,97668.31
2023-01-25T20:36:49.147Z,97663.63
2023-01-25T20:39:18.845Z,97662.31
2023-01-25T20:41:47.869Z,97659.66
2023-01-25T20:44:18.179Z,97658.84
2023-01-25T20:46:46.749Z,97659.06
2023-01-25T20:49:18.092Z,97653.16
2023-01-25T20:51:47.309Z,97649.50
2023-01-25T20:54:15.791Z,97645.91
2023-01-25T20:56:47.823Z,97642.69
2023-01-25T20:59:17.797Z,97638.50
2023-01-25T21:01:46.940Z,97645.28
2023-01-25T21:04:16.967Z,97637.47
2023-01-25T21:06:45.306Z,97637.75
2023-01-25T21:09:14.271Z,97626.88
2023-01-25T21:11:43.001Z,97628.09
2023-01-25T21:14:11.870Z,97627.47
2023-01-25T21:16:40.571Z,97621.75
2023-01-25T21:19:09.296Z,97617.66
2023-01-25T21:21:39.681Z,97614.94
2023-01-25T21:24:10.380Z,97615.09
2023-01-25T21:26:39.004Z,97608.53
2023-01-25T21:29:07.640Z,97611.38
2023-01-25T21:31:37.936Z,97611.13
2023-01-25T21:34:08.536Z,97602.97
2023-01-25T21:36:37.746Z,97601.13
2023-01-25T21:39:10.218Z,97604.63
2023-01-25T21:41:39.036Z,97592.97
2023-01-25T21:44:25.784Z,97595.63
2023-01-25T21:47:23.543Z,97593.69
2023-01-25T21:50:00.112Z,97590.09
2023-01-25T21:52:28.416Z,97588.53
2023-01-25T21:54:58.548Z,97592.19
2023-01-25T21:57:27.233Z,97584.41
2023-01-25T21:59:56.351Z,97586.78
2023-01-25T22:02:24.628Z,97574.44
2023-01-25T22:04:53.828Z,97576.78
2023-01-25T22:07:22.210Z,97574.22
2023-01-25T22:09:50.846Z,97573.47
2023-01-25T22:12:20.792Z,97571.34
2023-01-25T22:14:51.505Z,97570.94
2023-01-25T22:17:22.616Z,97571.34
2023-01-25T22:19:51.355Z,97570.78
2023-01-25T22:22:20.153Z,97563.00
2023-01-25T22:24:49.309Z,97558.28
2023-01-25T22:27:39.273Z,97555.06
2023-01-25T22:30:12.627Z,97556.06
2023-01-25T22:32:41.822Z,97560.91
2023-01-25T22:35:11.112Z,97544.47
2023-01-25T22:37:40.030Z,97548.59
2023-01-25T22:40:11.266Z,97542.41
2023-01-25T22:42:41.927Z,97526.53
2023-01-25T22:45:23.672Z,97536.81
2023-01-25T22:47:52.256Z,97525.38
2023-01-25T22:50:20.963Z,97527.72
2023-01-25T22:52:50.218Z,97522.94
2023-01-25T22:55:18.971Z,97524.88
2023-01-25T22:57:49.454Z,97513.47
2023-01-25T23:00:19.184Z,97510.97
2023-01-25T23:02:47.891Z,97516.53
2023-01-25T23:05:16.872Z,97507.59
2023-01-25T23:07:45.841Z,97508.19
2023-01-25T23:10:16.461Z,97499.59
2023-01-25T23:12:46.416Z,97509.22
2023-01-25T23:15:16.595Z,97505.53
2023-01-25T23:18:02.717Z,97500.69
2023-01-25T23:20:31.520Z,97502.00
2023-01-25T23:23:00.133Z,97497.47
2023-01-25T23:25:28.795Z,97499.94
2023-01-25T23:27:57.824Z,97493.06
2023-01-25T23:30:27.676Z,97494.50
2023-01-25T23:32:56.236Z,97487.59
2023-01-25T23:35:24.810Z,97487.31
2023-01-25T23:37:53.559Z,97481.28
2023-01-25T23:40:22.079Z,97479.38
2023-01-25T23:42:50.341Z,97470.22
2023-01-25T23:45:19.085Z,97471.03
2023-01-25T23:47:49.218Z,97472.19
2023-01-25T23:50:18.406Z,97472.94
2023-01-25T23:52:46.667Z,97476.13
2023-01-25T23:55:15.023Z,97462.22
2023-01-25T23:57:43.266Z,97469.69
